createdAt,value
2023-05-01T00:00:13.768Z,11.39
2023-05-01T00:01:13.703Z,11.39
2023-05-01T00:02:13.837Z,11.39
2023-05-01T00:03:13.838Z,11.42
2023-05-01T00:04:13.835Z,11.42
2023-05-01T00:05:13.687Z,11.44
2023-05-01T00:06:13.654Z,11.44
2023-05-01T00:07:13.632Z,11.44
2023-05-01T00:08:13.607Z,11.43
2023-05-01T00:09:13.619Z,11.44
2023-05-01T00:10:13.672Z,11.49
2023-05-01T00:11:13.584Z,11.49
2023-05-01T00:12:13.624Z,11.49
2023-05-01T00:13:13.592Z,11.49
2023-05-01T00:14:13.637Z,11.51
2023-05-01T00:15:13.545Z,11.51
2023-05-01T00:16:13.691Z,11.51
2023-05-01T00:17:13.514Z,11.49
2023-05-01T00:18:13.655Z,11.49
2023-05-01T00:19:13.484Z,11.49
2023-05-01T00:20:13.546Z,11.49
2023-05-01T00:21:13.464Z,11.52
2023-05-01T00:22:13.472Z,11.52
2023-05-01T00:23:13.446Z,11.49
2023-05-01T00:24:13.439Z,11.47
2023-05-01T00:25:13.443Z,11.47
2023-05-01T00:26:13.445Z,11.47
2023-05-01T00:27:13.389Z,11.51
2023-05-01T00:28:13.390Z,11.52
2023-05-01T00:29:13.416Z,11.52
2023-05-01T00:30:13.413Z,11.54
2023-05-01T00:31:13.420Z,11.57
2023-05-01T00:32:13.476Z,11.55
2023-05-01T00:33:13.329Z,11.57
2023-05-01T00:34:13.385Z,11.55
2023-05-01T00:35:13.359Z,11.54
2023-05-01T00:36:13.311Z,11.55
2023-05-01T00:37:13.300Z,11.52
2023-05-01T00:38:13.342Z,11.51
2023-05-01T00:39:13.265Z,11.49
2023-05-01T00:40:13.305Z,11.46
2023-05-01T00:41:13.281Z,11.43
2023-05-01T00:42:13.331Z,11.42
2023-05-01T00:43:13.231Z,11.37
2023-05-01T00:44:13.231Z,11.36
2023-05-01T00:45:13.227Z,11.32
2023-05-01T00:46:13.341Z,11.28
2023-05-01T00:47:13.180Z,11.25
2023-05-01T00:48:13.292Z,11.21
2023-05-01T00:49:13.167Z,11.17
2023-05-01T00:50:13.164Z,11.14
2023-05-01T00:51:13.138Z,11.09
2023-05-01T00:52:13.216Z,11.04
2023-05-01T00:53:13.188Z,11.02
2023-05-01T00:54:13.157Z,10.97
2023-05-01T00:55:13.101Z,10.94
2023-05-01T00:56:13.102Z,10.89
2023-05-01T00:57:13.078Z,10.86
2023-05-01T00:58:13.071Z,10.84
2023-05-01T00:59:13.048Z,10.79
2023-05-01T01:00:13.070Z,10.73
2023-05-01T01:01:13.120Z,10.70
2023-05-01T01:02:13.053Z,10.68
2023-05-01T01:03:13.004Z,10.66
2023-05-01T01:04:13.102Z,10.64
2023-05-01T01:05:12.982Z,10.64
2023-05-01T01:06:13.057Z,10.61
2023-05-01T01:07:12.986Z,10.60
2023-05-01T01:08:13.010Z,10.59
2023-05-01T01:09:12.960Z,10.55
2023-05-01T01:10:12.954Z,10.52
2023-05-01T01:11:12.945Z,10.48
2023-05-01T01:12:12.919Z,10.45
2023-05-01T01:13:12.914Z,10.45
2023-05-01T01:14:12.970Z,10.41
2023-05-01T01:15:12.903Z,10.38
2023-05-01T01:16:12.989Z,10.33
2023-05-01T01:17:13.021Z,10.33
2023-05-01T01:18:12.961Z,10.30
2023-05-01T01:19:12.861Z,10.29
2023-05-01T01:20:12.844Z,10.29
2023-05-01T01:21:12.837Z,10.27
2023-05-01T01:22:12.881Z,10.27
2023-05-01T01:23:12.825Z,10.27
2023-05-01T01:24:12.801Z,10.26
2023-05-01T01:25:12.789Z,10.26
2023-05-01T01:26:12.770Z,10.26
2023-05-01T01:27:12.747Z,10.25
2023-05-01T01:28:12.739Z,10.23
2023-05-01T01:29:12.783Z,10.23
2023-05-01T01:30:12.763Z,10.22
2023-05-01T01:31:12.761Z,10.25
2023-05-01T01:32:12.850Z,10.25
2023-05-01T01:33:12.677Z,10.25
2023-05-01T01:34:12.681Z,10.23
2023-05-01T01:35:12.667Z,10.25
2023-05-01T01:36:12.696Z,10.26
2023-05-01T01:37:12.636Z,10.25
2023-05-01T01:38:12.688Z,10.26
2023-05-01T01:39:12.619Z,10.26
2023-05-01T01:40:12.604Z,10.27
2023-05-01T01:41:12.625Z,10.25
2023-05-01T01:42:12.580Z,10.26
2023-05-01T01:43:12.587Z,10.27
2023-05-01T01:44:12.587Z,10.26
2023-05-01T01:45:12.546Z,10.27
2023-05-01T01:46:12.581Z,10.27
2023-05-01T01:47:12.545Z,10.29
2023-05-01T01:48:12.582Z,10.29
2023-05-01T01:49:12.544Z,10.30
2023-05-01T01:50:12.607Z,10.30
2023-05-01T01:51:12.482Z,10.30
2023-05-01T01:52:12.486Z,10.32
2023-05-01T01:53:12.477Z,10.29
2023-05-01T01:54:12.495Z,10.29
2023-05-01T01:55:12.432Z,10.33
2023-05-01T01:56:12.583Z,10.34
2023-05-01T01:57:12.403Z,10.34
2023-05-01T01:58:12.496Z,10.34
2023-05-01T01:59:12.454Z,10.34
2023-05-01T02:00:12.409Z,10.34
2023-05-01T02:01:12.388Z,10.34
2023-05-01T02:02:12.418Z,10.33
2023-05-01T02:03:12.461Z,10.33
2023-05-01T02:04:12.492Z,10.34
2023-05-01T02:05:12.313Z,10.33
2023-05-01T02:06:12.440Z,10.33
2023-05-01T02:07:12.294Z,10.32
2023-05-01T02:08:12.326Z,10.33
2023-05-01T02:09:12.310Z,10.33
2023-05-01T02:10:12.385Z,10.33
2023-05-01T02:11:12.256Z,10.32
2023-05-01T02:12:12.250Z,10.33
2023-05-01T02:13:12.265Z,10.33
2023-05-01T02:14:12.249Z,10.32
2023-05-01T02:15:12.237Z,10.32
2023-05-01T02:16:12.237Z,10.32
2023-05-01T02:17:12.199Z,10.30
2023-05-01T02:18:12.193Z,10.29
2023-05-01T02:19:12.183Z,10.30
2023-05-01T02:20:12.179Z,10.33
2023-05-01T02:21:12.158Z,10.36
2023-05-01T02:22:12.138Z,10.36
2023-05-01T02:23:12.125Z,10.38
2023-05-01T02:24:12.168Z,10.36
2023-05-01T02:25:12.124Z,10.33
2023-05-01T02:26:12.139Z,10.34
2023-05-01T02:27:12.073Z,10.33
2023-05-01T02:28:12.106Z,10.33
2023-05-01T02:29:12.111Z,10.32
2023-05-01T02:30:12.060Z,10.32
2023-05-01T02:31:12.070Z,10.29
2023-05-01T02:32:12.050Z,10.29
2023-05-01T02:33:12.003Z,10.27
2023-05-01T02:34:12.032Z,10.29
2023-05-01T02:35:12.020Z,10.29
2023-05-01T02:36:12.010Z,10.29
2023-05-01T02:37:11.964Z,10.30
2023-05-01T02:38:12.016Z,10.29
2023-05-01T02:39:11.958Z,10.29
2023-05-01T02:40:11.962Z,10.29
2023-05-01T02:41:11.932Z,10.30
2023-05-01T02:42:11.938Z,10.29
2023-05-01T02:43:11.900Z,10.29
2023-05-01T02:44:11.904Z,10.29
2023-05-01T02:45:11.890Z,10.27
2023-05-01T02:46:11.926Z,10.27
2023-05-01T02:47:11.932Z,10.29
2023-05-01T02:48:11.919Z,10.30
2023-05-01T02:49:11.873Z,10.29
2023-05-01T02:50:11.850Z,10.29
2023-05-01T02:51:11.808Z,10.29
2023-05-01T02:52:11.830Z,10.27
2023-05-01T02:53:11.818Z,10.27
2023-05-01T02:54:11.809Z,10.29
2023-05-01T02:55:11.788Z,10.27
2023-05-01T02:56:11.828Z,10.27
2023-05-01T02:57:11.752Z,10.29
2023-05-01T02:58:11.752Z,10.29
2023-05-01T02:59:11.753Z,10.29
2023-05-01T03:00:11.761Z,10.29
2023-05-01T03:01:11.769Z,10.29
2023-05-01T03:02:11.754Z,10.30
2023-05-01T03:03:11.748Z,10.29
2023-05-01T03:04:11.833Z,10.27
2023-05-01T03:05:11.667Z,10.29
2023-05-01T03:06:11.696Z,10.29
2023-05-01T03:07:11.650Z,10.27
2023-05-01T03:08:11.757Z,10.29
2023-05-01T03:09:11.635Z,10.29
2023-05-01T03:10:11.651Z,10.27
2023-05-01T03:11:11.597Z,10.32
2023-05-01T03:12:11.611Z,10.34
2023-05-01T03:13:11.617Z,10.38
2023-05-01T03:14:11.629Z,10.38
2023-05-01T03:15:11.555Z,10.38
2023-05-01T03:16:11.576Z,10.38
2023-05-01T03:17:11.542Z,10.34
2023-05-01T03:18:11.590Z,10.34
2023-05-01T03:19:11.531Z,10.32
2023-05-01T03:20:11.491Z,10.29
2023-05-01T03:21:11.476Z,10.27
2023-05-01T03:22:11.540Z,10.27
2023-05-01T03:23:11.473Z,10.23
2023-05-01T03:24:11.557Z,10.23
2023-05-01T03:25:11.445Z,10.25
2023-05-01T03:26:11.436Z,10.22
2023-05-01T03:27:11.427Z,10.20
2023-05-01T03:28:11.530Z,10.18
2023-05-01T03:29:11.410Z,10.20
2023-05-01T03:30:11.686Z,10.20
2023-05-01T03:31:11.364Z,10.20
2023-05-01T03:32:11.413Z,10.20
2023-05-01T03:33:11.442Z,10.23
2023-05-01T03:34:11.391Z,10.26
2023-05-01T03:35:11.363Z,10.25
2023-05-01T03:36:11.410Z,10.25
2023-05-01T03:37:11.317Z,10.25
2023-05-01T03:38:11.332Z,10.23
2023-05-01T03:39:11.289Z,10.23
2023-05-01T03:40:11.301Z,10.23
2023-05-01T03:41:11.272Z,10.22
2023-05-01T03:42:11.274Z,10.18
2023-05-01T03:43:11.264Z,10.17
2023-05-01T03:44:11.330Z,10.14
2023-05-01T03:45:11.367Z,10.11
2023-05-01T03:46:11.298Z,10.09
2023-05-01T03:47:11.196Z,10.07
2023-05-01T03:48:11.376Z,10.07
2023-05-01T03:49:11.202Z,10.04
2023-05-01T03:50:11.204Z,10.02
2023-05-01T03:51:11.146Z,10.01
2023-05-01T03:52:11.210Z,10.02
2023-05-01T03:53:11.136Z,10.01
2023-05-01T03:54:11.188Z,9.99
2023-05-01T03:55:11.116Z,9.97
2023-05-01T03:56:11.129Z,9.97
2023-05-01T03:57:11.105Z,9.99
2023-05-01T03:58:11.121Z,10.01
2023-05-01T03:59:11.071Z,10.02
2023-05-01T04:00:11.053Z,10.01
2023-05-01T04:01:11.048Z,10.02
2023-05-01T04:02:11.120Z,10.02
2023-05-01T04:03:11.079Z,10.05
2023-05-01T04:04:11.229Z,10.07
2023-05-01T04:05:11.000Z,10.09
2023-05-01T04:06:11.113Z,10.09
2023-05-01T04:07:10.980Z,10.14
2023-05-01T04:08:11.022Z,10.15
2023-05-01T04:09:10.989Z,10.20
2023-05-01T04:10:10.982Z,10.22
2023-05-01T04:11:10.934Z,10.22
2023-05-01T04:12:10.988Z,10.23
2023-05-01T04:13:10.912Z,10.22
2023-05-01T04:14:10.930Z,10.20
2023-05-01T04:15:10.886Z,10.20
2023-05-01T04:16:11.042Z,10.20
2023-05-01T04:17:10.866Z,10.22
2023-05-01T04:18:10.979Z,10.22
2023-05-01T04:19:10.875Z,10.23
2023-05-01T04:20:10.855Z,10.25
2023-05-01T04:21:10.839Z,10.25
2023-05-01T04:22:10.895Z,10.25
2023-05-01T04:23:10.836Z,10.25
2023-05-01T04:24:10.836Z,10.25
2023-05-01T04:25:10.818Z,10.26
2023-05-01T04:26:10.804Z,10.27
2023-05-01T04:27:10.754Z,10.30
2023-05-01T04:28:10.784Z,10.30
2023-05-01T04:29:10.785Z,10.32
2023-05-01T04:30:10.731Z,10.34
2023-05-01T04:31:10.789Z,10.38
2023-05-01T04:32:10.702Z,10.38
2023-05-01T04:33:10.752Z,10.41
2023-05-01T04:34:10.776Z,10.40
2023-05-01T04:35:10.700Z,10.42
2023-05-01T04:36:10.690Z,10.44
2023-05-01T04:37:10.673Z,10.45
2023-05-01T04:38:10.770Z,10.45
2023-05-01T04:39:10.649Z,10.44
2023-05-01T04:40:11.686Z,10.44
2023-05-01T04:41:10.649Z,10.45
2023-05-01T04:42:10.590Z,10.47
2023-05-01T04:43:10.583Z,10.45
2023-05-01T04:44:10.778Z,10.45
2023-05-01T04:45:10.548Z,10.48
2023-05-01T04:46:10.618Z,10.48
2023-05-01T04:47:10.561Z,10.47
2023-05-01T04:48:10.613Z,10.47
2023-05-01T04:49:10.531Z,10.47
2023-05-01T04:50:10.503Z,10.41
2023-05-01T04:51:10.506Z,10.44
2023-05-01T04:52:10.501Z,10.44
2023-05-01T04:53:10.457Z,10.44
2023-05-01T04:54:10.466Z,10.44
2023-05-01T04:55:10.498Z,10.44
2023-05-01T04:56:10.520Z,10.44
2023-05-01T04:57:10.475Z,10.45
2023-05-01T04:58:10.487Z,10.48
2023-05-01T04:59:10.417Z,10.48
2023-05-01T05:00:10.414Z,10.48
2023-05-01T05:01:10.406Z,10.51
2023-05-01T05:02:10.470Z,10.48
2023-05-01T05:03:10.616Z,10.52
2023-05-01T05:04:10.387Z,10.53
2023-05-01T05:05:10.333Z,10.55
2023-05-01T05:06:10.381Z,10.55
2023-05-01T05:07:10.311Z,10.55
2023-05-01T05:08:10.401Z,10.56
2023-05-01T05:09:10.326Z,10.56
2023-05-01T05:10:10.322Z,10.56
2023-05-01T05:11:10.285Z,10.59
2023-05-01T05:12:10.358Z,10.60
2023-05-01T05:13:10.255Z,10.61
2023-05-01T05:14:10.308Z,10.63
2023-05-01T05:15:10.225Z,10.63
2023-05-01T05:16:10.328Z,10.66
2023-05-01T05:17:10.205Z,10.66
2023-05-01T05:18:10.238Z,10.68
2023-05-01T05:19:10.181Z,10.70
2023-05-01T05:20:10.209Z,10.71
2023-05-01T05:21:10.164Z,10.73
2023-05-01T05:22:10.151Z,10.76
2023-05-01T05:23:10.160Z,10.79
2023-05-01T05:24:10.132Z,10.81
2023-05-01T05:25:10.133Z,10.82
2023-05-01T05:26:10.198Z,10.84
2023-05-01T05:27:10.096Z,10.88
2023-05-01T05:28:10.117Z,10.92
2023-05-01T05:29:10.075Z,10.92
2023-05-01T05:30:10.138Z,10.92
2023-05-01T05:31:10.060Z,10.97
2023-05-01T05:32:10.151Z,10.97
2023-05-01T05:33:10.110Z,11.03
2023-05-01T05:34:10.056Z,11.04
2023-05-01T05:35:10.054Z,11.04
2023-05-01T05:36:10.031Z,11.09
2023-05-01T05:37:10.006Z,11.10
2023-05-01T05:38:10.018Z,11.14
2023-05-01T05:39:09.983Z,11.15
2023-05-01T05:40:10.134Z,11.18
2023-05-01T05:41:09.961Z,11.21
2023-05-01T05:42:10.021Z,11.24
2023-05-01T05:43:09.925Z,11.24
2023-05-01T05:44:10.002Z,11.25
2023-05-01T05:45:09.900Z,11.29
2023-05-01T05:46:09.940Z,11.33
2023-05-01T05:47:09.907Z,11.36
2023-05-01T05:48:10.002Z,11.37
2023-05-01T05:49:09.862Z,11.40
2023-05-01T05:50:09.918Z,11.44
2023-05-01T05:51:09.844Z,11.46
2023-05-01T05:52:09.919Z,11.49
2023-05-01T05:53:09.858Z,11.51
2023-05-01T05:54:09.881Z,11.54
2023-05-01T05:55:09.784Z,11.57
2023-05-01T05:56:09.813Z,11.57
2023-05-01T05:57:09.773Z,11.58
2023-05-01T05:58:09.817Z,11.61
2023-05-01T05:59:09.772Z,11.64
2023-05-01T06:00:09.794Z,11.65
2023-05-01T06:01:09.729Z,11.69
2023-05-01T06:02:09.791Z,11.72
2023-05-01T06:03:09.761Z,11.73
2023-05-01T06:04:09.724Z,11.79
2023-05-01T06:05:09.750Z,11.80
2023-05-01T06:06:10.184Z,11.82
2023-05-01T06:07:09.692Z,11.85
2023-05-01T06:08:09.681Z,11.86
2023-05-01T06:09:09.689Z,11.88
2023-05-01T06:10:09.726Z,11.91
2023-05-01T06:11:09.607Z,11.90
2023-05-01T06:12:09.686Z,11.94
2023-05-01T06:13:13.721Z,11.98
2023-05-01T06:14:10.638Z,11.99
2023-05-01T06:15:09.567Z,12.02
2023-05-01T06:16:09.738Z,12.04
2023-05-01T06:17:09.553Z,12.04
2023-05-01T06:18:09.592Z,12.07
2023-05-01T06:19:09.546Z,12.10
2023-05-01T06:20:09.635Z,12.12
2023-05-01T06:21:09.497Z,12.13
2023-05-01T06:22:09.517Z,12.14
2023-05-01T06:23:09.680Z,12.17
2023-05-01T06:24:09.608Z,12.19
2023-05-01T06:25:09.474Z,12.19
2023-05-01T06:26:09.483Z,12.20
2023-05-01T06:27:09.440Z,12.23
2023-05-01T06:28:09.524Z,12.27
2023-05-01T06:29:09.455Z,12.27
2023-05-01T06:30:09.487Z,12.28
2023-05-01T06:31:09.492Z,12.29
2023-05-01T06:32:09.416Z,12.32
2023-05-01T06:33:09.443Z,12.34
2023-05-01T06:34:09.422Z,12.37
2023-05-01T06:35:09.349Z,12.41
2023-05-01T06:36:09.426Z,12.45
2023-05-01T06:37:09.329Z,12.47
2023-05-01T06:38:09.321Z,12.50
2023-05-01T06:39:09.404Z,12.52
2023-05-01T06:40:09.302Z,12.54
2023-05-01T06:41:09.289Z,12.57
2023-05-01T06:42:09.274Z,12.59
2023-05-01T06:43:09.258Z,12.62
2023-05-01T06:44:09.371Z,12.67
2023-05-01T06:45:09.248Z,12.72
2023-05-01T06:46:09.316Z,12.75
2023-05-01T06:47:09.311Z,12.77
2023-05-01T06:48:09.275Z,12.78
2023-05-01T06:49:09.246Z,12.79
2023-05-01T06:50:09.235Z,12.82
2023-05-01T06:51:09.176Z,12.83
2023-05-01T06:52:09.220Z,12.86
2023-05-01T06:53:09.148Z,12.87
2023-05-01T06:54:09.182Z,12.89
2023-05-01T06:55:09.138Z,12.89
2023-05-01T06:56:09.202Z,12.90
2023-05-01T06:57:09.118Z,12.92
2023-05-01T06:58:22.547Z,12.92
2023-05-01T06:59:10.154Z,12.95
2023-05-01T07:00:09.133Z,12.95
2023-05-01T07:01:09.126Z,12.96
2023-05-01T07:02:09.147Z,12.97
2023-05-01T07:03:09.075Z,13.00
2023-05-01T07:04:09.067Z,13.00
2023-05-01T07:05:09.009Z,13.01
2023-05-01T07:06:09.191Z,13.04
2023-05-01T07:07:08.993Z,13.05
2023-05-01T07:09:12.503Z,13.10
2023-05-01T07:10:12.515Z,13.11
2023-05-01T07:11:12.483Z,13.12
2023-05-01T07:12:12.472Z,13.15
2023-05-01T07:13:12.466Z,13.19
2023-05-01T07:14:12.457Z,13.23
2023-05-01T07:15:12.442Z,13.28
2023-05-01T07:16:12.489Z,13.29
2023-05-01T07:17:12.408Z,13.30
2023-05-01T07:18:12.500Z,13.32
2023-05-01T07:19:12.394Z,13.33
2023-05-01T07:20:12.384Z,13.39
2023-05-01T07:21:12.372Z,13.41
2023-05-01T07:22:12.382Z,13.44
2023-05-01T07:23:12.388Z,13.46
2023-05-01T07:24:12.346Z,13.48
2023-05-01T07:25:12.337Z,13.51
2023-05-01T07:26:12.335Z,13.51
2023-05-01T07:27:12.304Z,13.52
2023-05-01T07:28:12.307Z,13.57
2023-05-01T07:29:12.284Z,13.59
2023-05-01T07:30:12.283Z,13.60
2023-05-01T07:31:12.270Z,13.63
2023-05-01T07:32:12.389Z,13.63
2023-05-01T07:33:12.323Z,13.66
2023-05-01T07:34:12.247Z,13.69
2023-05-01T07:35:12.230Z,13.69
2023-05-01T07:36:12.200Z,13.70
2023-05-01T07:37:12.192Z,13.71
2023-05-01T07:38:12.201Z,13.73
2023-05-01T07:39:12.163Z,13.75
2023-05-01T07:40:12.199Z,13.77
2023-05-01T07:41:12.145Z,13.78
2023-05-01T07:42:12.140Z,13.79
2023-05-01T07:43:12.133Z,13.82
2023-05-01T07:44:12.153Z,13.85
2023-05-01T07:45:12.117Z,13.85
2023-05-01T07:46:12.205Z,13.88
2023-05-01T07:47:12.084Z,13.92
2023-05-01T07:48:12.139Z,13.96
2023-05-01T07:49:12.086Z,13.97
2023-05-01T07:50:12.039Z,14.02
2023-05-01T07:51:12.041Z,14.04
2023-05-01T07:52:12.142Z,14.07
2023-05-01T07:53:12.021Z,14.10
2023-05-01T07:54:12.013Z,14.14
2023-05-01T07:55:11.994Z,14.14
2023-05-01T07:56:12.031Z,14.12
2023-05-01T07:57:11.986Z,14.15
2023-05-01T07:58:11.966Z,14.20
2023-05-01T07:59:11.963Z,14.27
2023-05-01T08:00:12.013Z,14.32
2023-05-01T08:01:11.927Z,14.33
2023-05-01T08:02:12.027Z,14.37
2023-05-01T08:03:12.213Z,14.46
2023-05-01T08:04:11.969Z,14.54
2023-05-01T08:05:11.874Z,14.64
2023-05-01T08:06:12.003Z,14.70
2023-05-01T08:07:11.853Z,14.77
2023-05-01T08:08:11.859Z,14.78
2023-05-01T08:09:11.843Z,14.84
2023-05-01T08:10:11.859Z,14.88
2023-05-01T08:11:11.823Z,14.86
2023-05-01T08:12:11.805Z,14.86
2023-05-01T08:13:11.805Z,14.94
2023-05-01T08:14:11.778Z,14.95
2023-05-01T08:15:11.769Z,14.95
2023-05-01T08:16:11.832Z,15.06
2023-05-01T08:17:11.746Z,15.14
2023-05-01T08:18:11.792Z,15.19
2023-05-01T08:19:11.734Z,15.21
2023-05-01T08:20:11.744Z,15.28
2023-05-01T08:21:11.707Z,15.32
2023-05-01T08:22:11.729Z,15.44
2023-05-01T08:23:11.695Z,15.67
2023-05-01T08:24:11.755Z,15.84
2023-05-01T08:25:11.664Z,15.94
2023-05-01T08:26:11.806Z,16.07
2023-05-01T08:27:11.668Z,16.17
2023-05-01T08:28:11.687Z,16.12
2023-05-01T08:29:11.637Z,16.01
2023-05-01T08:30:11.612Z,15.96
2023-05-01T08:31:11.699Z,15.90
2023-05-01T08:32:11.628Z,15.82
2023-05-01T08:33:11.621Z,15.78
2023-05-01T08:34:11.733Z,15.82
2023-05-01T08:35:11.582Z,15.83
2023-05-01T08:36:11.544Z,15.80
2023-05-01T08:37:11.532Z,15.75
2023-05-01T08:38:11.590Z,15.76
2023-05-01T08:39:11.504Z,15.80
2023-05-01T08:40:11.536Z,15.82
2023-05-01T08:41:11.500Z,15.96
2023-05-01T08:42:11.613Z,16.05
2023-05-01T08:43:11.497Z,16.07
2023-05-01T08:44:11.459Z,16.02
2023-05-01T08:45:11.446Z,16.09
2023-05-01T08:46:11.481Z,16.15
2023-05-01T08:47:11.472Z,16.11
2023-05-01T08:48:11.484Z,16.11
2023-05-01T08:49:11.418Z,16.14
2023-05-01T08:50:11.469Z,16.20
2023-05-01T08:51:11.389Z,16.21
2023-05-01T08:52:11.361Z,16.21
2023-05-01T08:53:11.366Z,16.23
2023-05-01T08:54:11.348Z,16.23
2023-05-01T08:55:11.369Z,16.15
2023-05-01T08:56:11.355Z,16.12
2023-05-01T08:57:11.298Z,16.07
2023-05-01T08:58:11.304Z,15.94
2023-05-01T08:59:11.282Z,15.94
2023-05-01T09:00:11.339Z,15.96
2023-05-01T09:01:11.304Z,16.05
2023-05-01T09:02:11.347Z,16.11
2023-05-01T09:03:11.338Z,16.12
2023-05-01T09:04:11.309Z,16.14
2023-05-01T09:05:11.232Z,16.12
2023-05-01T09:06:11.237Z,16.14
2023-05-01T09:07:11.199Z,16.23
2023-05-01T09:08:11.194Z,16.21
2023-05-01T09:09:11.175Z,16.27
2023-05-01T09:10:11.173Z,16.31
2023-05-01T09:11:11.191Z,16.43
2023-05-01T09:12:11.183Z,16.67
2023-05-01T09:13:11.150Z,16.83
2023-05-01T09:14:11.166Z,17.04
2023-05-01T09:15:11.138Z,17.26
2023-05-01T09:16:11.297Z,17.52
2023-05-01T09:17:11.079Z,17.72
2023-05-01T09:18:11.155Z,17.75
2023-05-01T09:19:11.064Z,17.78
2023-05-01T09:20:11.099Z,17.86
2023-05-01T09:21:11.043Z,17.89
2023-05-01T09:22:11.038Z,17.84
2023-05-01T09:23:11.039Z,17.81
2023-05-01T09:24:11.095Z,17.84
2023-05-01T09:25:11.030Z,17.87
2023-05-01T09:26:11.021Z,17.89
2023-05-01T09:27:10.974Z,17.89
2023-05-01T09:28:11.940Z,18.05
2023-05-01T09:29:10.962Z,18.15
2023-05-01T09:30:10.971Z,18.30
2023-05-01T09:31:10.933Z,18.39
2023-05-01T09:32:11.052Z,18.66
2023-05-01T09:33:11.226Z,18.90
2023-05-01T09:34:10.915Z,19.10
2023-05-01T09:35:10.898Z,19.23
2023-05-01T09:36:10.956Z,19.26
2023-05-01T09:37:10.879Z,19.14
2023-05-01T09:38:10.962Z,19.19
2023-05-01T09:39:10.851Z,18.92
2023-05-01T09:40:10.875Z,18.85
2023-05-01T09:41:10.842Z,18.95
2023-05-01T09:42:10.856Z,19.04
2023-05-01T09:43:11.868Z,19.08
2023-05-01T09:44:10.808Z,19.08
2023-05-01T09:45:10.790Z,19.07
2023-05-01T09:46:10.959Z,18.95
2023-05-01T09:47:10.779Z,19.10
2023-05-01T09:48:11.065Z,18.99
2023-05-01T09:49:10.796Z,18.90
2023-05-01T09:50:10.746Z,19.06
2023-05-01T09:51:10.758Z,19.14
2023-05-01T09:52:10.734Z,19.11
2023-05-01T09:53:10.728Z,18.98
2023-05-01T09:54:10.769Z,18.95
2023-05-01T09:55:10.706Z,18.94
2023-05-01T09:56:10.709Z,18.98
2023-05-01T09:57:10.670Z,18.92
2023-05-01T09:58:10.780Z,18.84
2023-05-01T09:59:10.659Z,18.72
2023-05-01T10:00:10.712Z,18.76
2023-05-01T10:01:10.709Z,18.75
2023-05-01T10:02:10.683Z,18.81
2023-05-01T10:03:10.779Z,18.80
2023-05-01T10:04:10.758Z,18.72
2023-05-01T10:05:10.613Z,18.62
2023-05-01T10:06:10.608Z,18.57
2023-05-01T10:07:10.578Z,18.42
2023-05-01T10:08:10.593Z,18.32
2023-05-01T10:09:10.571Z,18.29
2023-05-01T10:10:10.554Z,18.30
2023-05-01T10:11:10.539Z,18.36
2023-05-01T10:12:10.530Z,18.42
2023-05-01T10:13:10.508Z,18.41
2023-05-01T10:14:10.538Z,18.44
2023-05-01T10:15:24.034Z,18.48
2023-05-01T10:16:11.592Z,18.45
2023-05-01T10:17:10.715Z,18.45
2023-05-01T10:18:10.608Z,18.51
2023-05-01T10:19:10.469Z,18.62
2023-05-01T10:20:10.474Z,18.62
2023-05-01T10:21:10.429Z,18.63
2023-05-01T10:22:10.496Z,18.66
2023-05-01T10:23:10.429Z,18.78
2023-05-01T10:24:10.538Z,18.81
2023-05-01T10:25:10.388Z,18.78
2023-05-01T10:26:10.393Z,18.72
2023-05-01T10:27:10.432Z,18.60
2023-05-01T10:28:10.436Z,18.54
2023-05-01T10:29:10.357Z,18.54
2023-05-01T10:30:10.354Z,18.52
2023-05-01T10:31:10.372Z,18.41
2023-05-01T10:32:10.391Z,18.33
2023-05-01T10:33:10.366Z,18.23
2023-05-01T10:34:10.353Z,18.26
2023-05-01T10:35:10.296Z,18.32
2023-05-01T10:36:10.303Z,18.35
2023-05-01T10:37:10.260Z,18.37
2023-05-01T10:38:10.299Z,18.47
2023-05-01T10:39:10.232Z,18.54
2023-05-01T10:40:10.230Z,18.57
2023-05-01T10:41:10.268Z,18.62
2023-05-01T10:42:10.259Z,18.58
2023-05-01T10:43:10.233Z,18.54
2023-05-01T10:44:10.273Z,18.48
2023-05-01T10:45:10.174Z,18.45
2023-05-01T10:46:10.300Z,18.52
2023-05-01T10:47:10.162Z,18.66
2023-05-01T10:48:10.284Z,18.85
2023-05-01T10:49:10.141Z,18.82
2023-05-01T10:50:10.158Z,18.81
2023-05-01T10:51:10.125Z,18.81
2023-05-01T10:52:10.175Z,18.72
2023-05-01T10:53:10.101Z,18.65
2023-05-01T10:54:10.115Z,18.62
2023-05-01T10:55:10.081Z,18.57
2023-05-01T10:56:10.095Z,18.51
2023-05-01T10:57:10.053Z,18.44
2023-05-01T10:58:10.120Z,18.35
2023-05-01T10:59:10.046Z,18.25
2023-05-01T11:00:10.020Z,18.20
2023-05-01T11:01:10.019Z,18.18
2023-05-01T11:02:10.078Z,18.21
2023-05-01T11:03:10.054Z,18.21
2023-05-01T11:04:10.010Z,18.12
2023-05-01T11:05:09.972Z,18.12
2023-05-01T11:06:10.052Z,18.15
2023-05-01T11:07:10.029Z,18.17
2023-05-01T11:08:09.940Z,18.17
2023-05-01T11:09:09.917Z,18.20
2023-05-01T11:10:09.918Z,18.21
2023-05-01T11:11:09.926Z,18.15
2023-05-01T11:12:09.908Z,18.14
2023-05-01T11:13:09.885Z,18.11
2023-05-01T11:14:09.926Z,18.12
2023-05-01T11:15:09.860Z,18.12
2023-05-01T11:16:09.874Z,18.14
2023-05-01T11:17:09.858Z,18.15
2023-05-01T11:18:09.941Z,18.15
2023-05-01T11:19:09.866Z,18.20
2023-05-01T11:20:09.813Z,18.26
2023-05-01T11:21:09.820Z,18.26
2023-05-01T11:22:09.868Z,18.29
2023-05-01T11:23:09.812Z,18.32
2023-05-01T11:24:09.832Z,18.33
2023-05-01T11:25:09.748Z,18.35
2023-05-01T11:26:09.734Z,18.39
2023-05-01T11:27:09.788Z,18.47
2023-05-01T11:28:09.793Z,18.51
2023-05-01T11:29:09.740Z,18.47
2023-05-01T11:30:09.759Z,18.42
2023-05-01T11:31:09.692Z,18.37
2023-05-01T11:32:09.798Z,18.36
2023-05-01T11:33:11.014Z,18.36
2023-05-01T11:34:09.657Z,18.41
2023-05-01T11:35:09.664Z,18.44
2023-05-01T11:36:09.624Z,18.45
2023-05-01T11:37:09.627Z,18.51
2023-05-01T11:38:09.617Z,18.63
2023-05-01T11:39:09.662Z,18.72
2023-05-01T11:40:09.657Z,18.73
2023-05-01T11:41:09.596Z,18.73
2023-05-01T11:42:09.790Z,18.80
2023-05-01T11:43:09.625Z,18.82
2023-05-01T11:44:09.572Z,18.80
2023-05-01T11:45:09.531Z,18.76
2023-05-01T11:46:09.675Z,18.78
2023-05-01T11:47:09.565Z,18.72
2023-05-01T11:48:09.570Z,18.70
2023-05-01T11:49:09.511Z,18.69
2023-05-01T11:50:09.593Z,18.72
2023-05-01T11:51:09.457Z,18.84
2023-05-01T11:52:09.466Z,18.91
2023-05-01T11:53:09.437Z,18.84
2023-05-01T11:54:09.499Z,18.78
2023-05-01T11:55:09.430Z,18.85
2023-05-01T11:56:19.511Z,18.90
2023-05-01T11:57:10.394Z,18.94
2023-05-01T11:58:09.421Z,19.04
2023-05-01T11:59:09.400Z,19.14
2023-05-01T12:00:09.433Z,19.36
2023-05-01T12:01:09.405Z,19.56
2023-05-01T12:02:09.441Z,19.74
2023-05-01T12:03:09.542Z,19.92
2023-05-01T12:04:09.503Z,20.10
2023-05-01T12:05:09.358Z,20.24
2023-05-01T12:06:09.393Z,20.41
2023-05-01T12:07:09.289Z,20.47
2023-05-01T12:08:09.292Z,20.43
2023-05-01T12:09:09.279Z,20.43
2023-05-01T12:10:09.374Z,20.47
2023-05-01T12:11:09.315Z,20.31
2023-05-01T12:12:09.245Z,20.20
2023-05-01T12:13:09.249Z,20.18
2023-05-01T12:14:09.225Z,20.16
2023-05-01T12:15:09.212Z,20.11
2023-05-01T12:16:09.247Z,20.08
2023-05-01T12:17:09.237Z,20.05
2023-05-01T12:18:09.373Z,20.02
2023-05-01T12:19:09.163Z,19.99
2023-05-01T12:20:09.222Z,19.98
2023-05-01T12:21:09.173Z,19.96
2023-05-01T12:22:09.223Z,19.98
2023-05-01T12:23:09.140Z,20.01
2023-05-01T12:24:09.168Z,20.02
2023-05-01T12:25:09.133Z,19.95
2023-05-01T12:26:09.142Z,19.83
2023-05-01T12:27:09.088Z,19.77
2023-05-01T12:28:10.050Z,19.80
2023-05-01T12:29:09.067Z,19.87
2023-05-01T12:30:09.076Z,19.88
2023-05-01T12:31:09.074Z,19.88
2023-05-01T12:32:09.203Z,19.95
2023-05-01T12:33:09.074Z,19.92
2023-05-01T12:34:09.006Z,19.86
2023-05-01T12:35:09.001Z,19.80
2023-05-01T12:36:09.029Z,19.77
2023-05-01T12:37:08.984Z,19.65
2023-05-01T12:38:08.970Z,19.59
2023-05-01T12:39:08.958Z,19.58
2023-05-01T12:40:08.954Z,19.63
2023-05-01T12:41:08.967Z,19.68
2023-05-01T12:42:08.951Z,19.73
2023-05-01T12:43:08.911Z,19.81
2023-05-01T12:44:08.951Z,19.88
2023-05-01T12:45:08.891Z,19.99
2023-05-01T12:46:08.918Z,20.10
2023-05-01T12:47:08.865Z,20.20
2023-05-01T12:48:08.880Z,20.24
2023-05-01T12:49:08.855Z,20.23
2023-05-01T12:50:08.916Z,20.23
2023-05-01T12:51:08.845Z,20.21
2023-05-01T12:52:09.026Z,20.18
2023-05-01T12:53:08.815Z,20.20